Nearby METAR Reports

 

KPRB - Paso Robles, California, USA
Distance from station: SW 1mi, 1km
Updated: 10/31/2014 3:53pm
Overcast
Overcast
 Wind from WSW
Wind: WSW 14 mph , 22 km/h
Temperature: 66°F , 19°C
Dew Point: 50°F , 10°C
Humidity: 56%
Barometer: 29.80 inHg , 1009.1 hPa
Clouds: Overcast
Visibility: 10 miles , 16 km
Cloud details: Mostly cloudy 3900 ft
Overcast 4900 ft
2014/10/31 22:53 KPRB 312253Z AUTO 25012KT 10SM BKN039 OVC049 19/10 A2980 RMK AO2 SLP087 T01890100 TSNO $
KSBP - San Luis Obispo, California, USA
Distance from station: S 30mi, 49km
Updated: 10/31/2014 3:56pm
Overcast
Overcast
 Wind from S
Wind: S 12 mph , 19 km/h
Temperature: 64°F , 18°C
Dew Point: 55°F , 13°C
Humidity: 73%
Barometer: 29.81 inHg , 1009.5 hPa
Clouds: Overcast
Visibility: 10 miles , 16 km
Cloud details: Mostly cloudy 4300 ft
Overcast 6000 ft
2014/10/31 22:56 KSBP 312256Z 19010KT 10SM BKN043 OVC060 18/13 A2981 RMK AO2 SLP094 T01830133
 
KSMX - Santa Maria, California, USA
Distance from station: S 54mi, 87km
Updated: 10/31/2014 3:51pm
Mostly cloudy
Mostly cloudy
 Wind from S
Wind: S 15 mph , 24 km/h
Temperature: 72°F , 22°C
Dew Point: 54°F , 12°C
Humidity: 53%
Barometer: 29.82 inHg , 1009.8 hPa
Clouds: Mostly cloudy
Visibility: 10 miles , 16 km
Cloud details: Mostly cloudy 5500 ft
2014/10/31 22:51 KSMX 312251Z 18013KT 10SM BKN055 22/12 A2982 RMK AO2 SLP096 T02220117
KNLC - Lemoore Nas/Reev, California, USA
Distance from station: NE 58mi, 94km
Updated: 10/31/2014 3:56pm
Partly cloudy
Partly cloudy
 Wind from WSW
Wind: WSW 15 mph , 24 km/h, Gust: 25 mph , 41 km/h
Temperature: 75°F , 24°C
Dew Point: 50°F , 10°C
Humidity: 41%
Barometer: 29.74 inHg , 1007.1 hPa
Clouds: Partly cloudy
Visibility: 10 miles , 16 km
Cloud details: Partly cloudy 5000 ft
Partly cloudy 17000 ft
2014/10/31 22:56 KNLC 312256Z 25013G22KT 10SM SCT050 SCT170 24/10 A2974 RMK AO2 WSHFT 2144 SLP071 RH/41 T02390100 $
 
KVBG - Vandenberg Afb, California, USA
Distance from station: S 65mi, 105km
Updated: 10/31/2014 3:55pm
Mostly cloudy
Mostly cloudy
 Wind from S
Wind: S 13 mph , 20 km/h
Temperature: 68°F , 20°C
Dew Point: 52°F , 11°C
Humidity: 56%
Barometer: 29.83 inHg , 1010.2 hPa
Clouds: Mostly cloudy
Visibility: 10 miles , 16 km
Cloud details: Few Clouds 2000 ft
Mostly cloudy 3200 ft
Mostly cloudy 5000 ft
2014/10/31 22:55 KVBG 312255Z 19011KT 10SM FEW020 BKN032 BKN050 20/11 A2983 RMK AO2A SLP092 T02000111
KLPC - Lompoc, California, USA
Distance from station: S 70mi, 113km
Updated: 10/31/2014 4:15pm
Mostly cloudy
Mostly cloudy
 Wind from SSE
Wind: SSE 8 mph , 13 km/h
Temperature: 68°F , 20°C
Dew Point: 50°F , 10°C
Humidity: 53%
Barometer: 29.84 inHg , 1010.5 hPa
Clouds: Mostly cloudy
Visibility: 10 miles , 16 km
Cloud details: Partly cloudy 3300 ft
Mostly cloudy 4700 ft
Mostly cloudy 5500 ft
2014/10/31 23:15 KLPC 312315Z AUTO 16007KT 10SM SCT033 BKN047 BKN055 20/10 A2984 RMK AO1
 
KHJO - Hanford, California, USA
Distance from station: NE 72mi, 116km
Updated: 10/31/2014 3:53pm
Clear
Clear
 Wind from SW
Wind: SW 13 mph , 20 km/h
Temperature: 75°F , 24°C
Dew Point: 48°F , 9°C
Humidity: 39%
Barometer: 29.75 inHg , 1007.5 hPa
Clouds: Clear
Visibility: 10 miles , 16 km
2014/10/31 22:53 KHJO 312253Z AUTO 22011KT 10SM CLR 24/09 A2975 RMK AO2 SLP074 T02390089